Terminal Aerodrome Forecast
Issued by NWS St Louis, MO

Home | Current Version | Previous Version | Text Only | Print | Product List | Glossary On
Versions: 1 2 3 4 5 6 7 8 9 10 11 12 13 14 15 16 17 18 19 20 21 22 23 24 25 26 27 28 29 30 31 32
822
FTUS43 KLSX 141457 AAA
TAFSTL
TAF AMD
KSTL 141457Z 1415/1518 18009KT P6SM BKN050
     FM141800 18005KT P6SM SCT050 SCT200
     FM150900 VRB03KT 6SM BR SCT100
     FM151400 18004KT P6SM SCT060=

USA.gov is the U.S. government's official web portal to all federal, state and local government web resources and services.